Airfield :
LOGIN :

Register | Disclaimer

   EN    FR    IT 

 










Legend :    VFR   Marginal VFR   IFR   Intensive IFR   Very Intensive IFR
Visi :
Ceiling :
>= 8 km
>= 3000ft
5 to 8 km
1000 to 3000 ft
1500m to 5 km
500 to 1000 ft
800 to 1500m
200 to 500 ft
< 800m
< 200 ft
Symbols :   Thunderstorms  Fog  Heavy snow  Heavy precipitations  Wind > 20 kt
SIGMETs :     Misc.  Thunderstorms  Icing  Turbulence  Mountain Waves  Volcanic Ashes







- Airport Elevation : 55 ft
- IATA code : DSA
- Download approach charts


EGCN - Robin Hood Doncaster Sheffield

CURRENT METAR :
  • 251750Z 07005KT 9999 FEW015 SCT023 BKN030 06/03 Q1015

EXPIRED METARs :
  • 251720Z 11004KT 060V160 9999 SCT025 SCT031 06/03 Q1015
  • 251650Z 34010KT 310V010 9999 FEW009 SCT024 09/03 Q1015
  • 251620Z 32010KT 9999 VCSH FEW022 SCT036CB 08/03 Q1015
  • 251550Z 36011KT 9999 VCSH FEW018 SCT026 SCT036CB 08/04 Q1015
  • 251520Z VRB11KT 330V030 9999 FEW014 SCT029CB SCT041 07/04 Q1015

TAF TAF EGCN
Valid from the 25 at 18:00 until the 26 at 18:00 UTC


251700Z 2518/2618 35012KT 9999 SCT014 BKN035
TEMPO 2518/2618 6000 SHRA
PROB40
TEMPO 2518/2522 4000 SHRAGS BKN012CB
No reported NOTAMs for that airfield.



MET'MAP, your aeronautical weather chart ! - Copyright ORBIFLY December 2007 - Disclaimer

ORBIFLY MET'MAP TEAM :

Programming & Development : Alexandra Zaïnal
Concept & Development : Baudouin d'Aumeries
Co-Development & Prog : Marc-Olivier Méhu
Technical & hardware support : Manuel Goepfert

Contact : metmap@orbifly.com




SOURCES & CREDITS :

   NOAA